createdAt,value
2022-11-14T00:00:47.898Z,85.10
2022-11-14T00:05:50.876Z,85.25
2022-11-14T00:10:53.750Z,85.09
2022-11-14T00:15:56.886Z,84.62
2022-11-14T00:20:59.748Z,84.28
2022-11-14T00:26:02.553Z,84.44
2022-11-14T00:31:06.028Z,84.09
2022-11-14T00:36:09.058Z,83.96
2022-11-14T00:41:11.880Z,83.64
2022-11-14T00:46:14.678Z,83.55
2022-11-14T00:51:17.474Z,83.40
2022-11-14T00:56:20.292Z,83.47
2022-11-14T01:01:23.134Z,83.48
2022-11-14T01:06:26.241Z,83.40
2022-11-14T01:11:29.094Z,83.27
2022-11-14T01:16:32.011Z,83.32
2022-11-14T01:21:35.209Z,83.14
2022-11-14T01:26:38.020Z,83.01
2022-11-14T01:31:42.430Z,82.75
2022-11-14T01:36:45.508Z,82.36
2022-11-14T01:41:48.308Z,81.90
2022-11-14T01:46:56.768Z,81.81
2022-11-14T01:52:06.158Z,81.51
2022-11-14T01:57:11.192Z,81.15
2022-11-14T02:02:17.486Z,80.89
2022-11-14T02:07:20.653Z,80.86
2022-11-14T02:12:24.302Z,80.84
2022-11-14T02:17:30.067Z,80.36
2022-11-14T02:22:33.724Z,79.97
2022-11-14T02:27:39.962Z,80.04
2022-11-14T02:33:09.449Z,79.39
2022-11-14T02:38:07.104Z,79.28
2022-11-14T02:43:09.909Z,79.42
2022-11-14T02:48:12.785Z,79.34
2022-11-14T02:53:15.712Z,78.95
2022-11-14T02:58:18.481Z,78.77
2022-11-14T03:03:21.244Z,78.77
2022-11-14T03:08:24.241Z,79.14
2022-11-14T03:13:30.330Z,79.21
2022-11-14T03:18:33.461Z,79.37
2022-11-14T03:23:36.857Z,79.29
2022-11-14T03:28:40.179Z,79.35
2022-11-14T03:33:43.012Z,79.19
2022-11-14T03:38:45.825Z,78.87
2022-11-14T03:43:48.626Z,78.73
2022-11-14T03:48:51.472Z,78.85
2022-11-14T03:53:54.306Z,78.84
2022-11-14T03:58:57.115Z,78.86
2022-11-14T04:03:59.974Z,78.71
2022-11-14T04:09:02.919Z,78.99
2022-11-14T04:14:05.731Z,79.13
2022-11-14T04:19:08.548Z,79.30
2022-11-14T04:24:11.471Z,79.53
2022-11-14T04:29:14.463Z,79.54
2022-11-14T04:34:17.264Z,79.60
2022-11-14T04:39:20.151Z,79.72
2022-11-14T04:44:22.947Z,80.12
2022-11-14T04:49:25.711Z,79.63
2022-11-14T04:54:28.440Z,79.50
2022-11-14T04:59:31.202Z,80.14
2022-11-14T05:04:33.967Z,80.22
2022-11-14T05:09:36.954Z,80.27
2022-11-14T05:14:39.712Z,80.09
2022-11-14T05:19:42.489Z,79.46
2022-11-14T05:24:45.261Z,79.39
2022-11-14T05:29:48.086Z,79.54
2022-11-14T05:34:50.899Z,79.82
2022-11-14T05:39:53.736Z,79.12
2022-11-14T05:44:56.536Z,78.89
2022-11-14T05:49:59.295Z,78.70
2022-11-14T05:55:02.473Z,78.87
2022-11-14T06:00:06.034Z,78.98
2022-11-14T06:05:09.568Z,78.76
2022-11-14T06:10:13.618Z,78.85
2022-11-14T06:15:16.819Z,78.86
2022-11-14T06:20:19.759Z,78.62
2022-11-14T06:25:22.552Z,78.70
2022-11-14T06:30:25.346Z,78.79
2022-11-14T06:35:28.320Z,78.15
2022-11-14T06:40:31.212Z,78.28
2022-11-14T06:45:33.962Z,78.21
2022-11-14T06:50:36.734Z,78.49
2022-11-14T06:55:39.559Z,77.73
2022-11-14T07:00:42.482Z,77.56
2022-11-14T07:05:47.673Z,77.77
2022-11-14T07:10:51.029Z,77.64
2022-11-14T07:16:18.081Z,77.77
2022-11-14T07:21:21.167Z,78.30
2022-11-14T07:26:24.333Z,78.15
2022-11-14T07:31:29.337Z,77.68
2022-11-14T07:36:33.270Z,77.76
2022-11-14T07:41:41.414Z,77.70
2022-11-14T07:46:44.469Z,77.52
2022-11-14T07:51:47.289Z,77.14
2022-11-14T07:56:51.149Z,76.43
2022-11-14T08:01:55.586Z,75.56
2022-11-14T08:12:43.340Z,74.52
2022-11-14T08:17:46.509Z,73.89
2022-11-14T08:22:49.358Z,72.79
2022-11-14T08:27:53.623Z,71.71
2022-11-14T08:32:56.506Z,71.46
2022-11-14T08:38:02.072Z,71.79
2022-11-14T08:43:07.727Z,71.43
2022-11-14T08:48:11.840Z,70.87
2022-11-14T08:53:14.828Z,71.47
2022-11-14T08:58:17.861Z,72.12
2022-11-14T09:03:25.489Z,72.40
2022-11-14T09:08:31.827Z,72.39
2022-11-14T09:13:35.595Z,72.03
2022-11-14T09:18:38.464Z,72.61
2022-11-14T09:23:41.339Z,72.82
2022-11-14T09:28:49.322Z,72.73
2022-11-14T09:33:52.347Z,72.17
2022-11-14T09:38:55.170Z,71.63
2022-11-14T09:44:22.094Z,71.15
2022-11-14T09:49:51.331Z,71.91
2022-11-14T09:55:01.493Z,71.66
2022-11-14T10:00:23.675Z,71.20
2022-11-14T10:05:48.391Z,71.26
2022-11-14T10:11:29.597Z,71.18
2022-11-14T10:17:05.336Z,71.70
2022-11-14T10:23:01.326Z,71.35
2022-11-14T10:28:32.252Z,71.04
2022-11-14T10:33:56.665Z,70.52
2022-11-14T10:39:10.978Z,70.35
2022-11-14T10:44:21.804Z,69.91
2022-11-14T10:49:25.981Z,69.57
2022-11-14T10:55:13.572Z,69.41
2022-11-14T11:00:19.591Z,69.93
2022-11-14T11:05:30.603Z,70.26
2022-11-14T11:10:54.223Z,69.87
2022-11-14T11:16:01.005Z,70.20
2022-11-14T11:21:12.677Z,70.47
2022-11-14T11:26:30.965Z,70.62
2022-11-14T11:31:53.755Z,70.89
2022-11-14T11:37:17.372Z,71.31
2022-11-14T11:48:10.296Z,70.62
2022-11-14T11:53:26.398Z,70.88
2022-11-14T11:58:46.148Z,70.82
2022-11-14T12:03:54.528Z,71.20
2022-11-14T12:09:22.028Z,71.73
2022-11-14T12:15:06.769Z,71.59
2022-11-14T12:20:48.143Z,71.39
2022-11-14T12:26:06.060Z,71.67
2022-11-14T12:31:14.262Z,72.16
2022-11-14T12:36:17.403Z,72.28
2022-11-14T12:41:38.392Z,72.93
2022-11-14T12:47:03.363Z,73.50
2022-11-14T12:52:46.933Z,73.68
2022-11-14T12:58:26.850Z,74.09
2022-11-14T13:03:49.093Z,73.80
2022-11-14T13:09:07.266Z,73.64
2022-11-14T13:14:29.089Z,74.31
2022-11-14T13:19:50.923Z,74.07
2022-11-14T13:24:59.697Z,73.64
2022-11-14T13:30:08.174Z,74.05
2022-11-14T13:35:37.219Z,74.50
2022-11-14T13:40:51.349Z,74.18
2022-11-14T13:46:13.761Z,74.59
2022-11-14T13:56:59.785Z,74.37
2022-11-14T14:02:43.840Z,74.51
2022-11-14T14:07:49.742Z,75.02
2022-11-14T14:13:10.970Z,75.71
2022-11-14T14:18:40.219Z,76.28
2022-11-14T14:23:54.956Z,76.62
2022-11-14T14:29:13.969Z,76.89
2022-11-14T14:34:29.242Z,77.55
2022-11-14T14:39:32.409Z,77.99
2022-11-14T14:44:40.707Z,78.66
2022-11-14T14:49:44.621Z,79.16
2022-11-14T14:54:55.123Z,79.54
2022-11-14T15:00:01.883Z,80.16
2022-11-14T15:05:05.436Z,80.67
2022-11-14T15:10:19.390Z,81.26
2022-11-14T15:15:25.816Z,81.54
2022-11-14T15:20:30.429Z,81.81
2022-11-14T15:25:33.830Z,82.56
2022-11-14T15:30:36.950Z,82.82
2022-11-14T15:35:40.446Z,82.96
2022-11-14T15:40:43.581Z,83.41
2022-11-14T15:45:46.517Z,83.62
2022-11-14T15:50:51.001Z,83.81
2022-11-14T15:55:53.843Z,83.91
2022-11-14T16:00:56.931Z,84.35
2022-11-14T16:06:01.955Z,84.75
2022-11-14T16:11:05.831Z,84.98
2022-11-14T16:16:08.803Z,85.07
2022-11-14T16:21:16.512Z,85.35
2022-11-14T16:26:20.403Z,85.41
2022-11-14T16:31:24.336Z,85.59
2022-11-14T16:36:27.750Z,85.61
2022-11-14T16:41:30.758Z,85.81
2022-11-14T16:46:33.631Z,85.68
2022-11-14T16:51:51.938Z,85.88
2022-11-14T16:56:55.232Z,85.69
2022-11-14T17:01:58.276Z,86.06
2022-11-14T17:07:01.243Z,86.07
2022-11-14T17:12:04.798Z,85.74
2022-11-14T17:17:07.865Z,85.64
2022-11-14T17:22:10.988Z,85.60
2022-11-14T17:27:14.005Z,85.92
2022-11-14T17:32:17.208Z,85.56
2022-11-14T17:37:20.113Z,85.59
2022-11-14T17:42:22.954Z,85.60
2022-11-14T17:47:25.815Z,85.91
2022-11-14T17:52:28.605Z,85.98
2022-11-14T17:57:31.462Z,85.80
2022-11-14T18:02:34.458Z,85.95
2022-11-14T18:07:37.355Z,85.95
2022-11-14T18:12:40.841Z,86.02
2022-11-14T18:17:43.656Z,86.01
2022-11-14T18:22:46.733Z,86.08
2022-11-14T18:27:49.837Z,85.91
2022-11-14T18:32:52.946Z,85.79
2022-11-14T18:37:57.725Z,85.58
2022-11-14T18:43:01.285Z,85.92
2022-11-14T18:48:04.284Z,85.85
2022-11-14T18:53:07.495Z,86.14
2022-11-14T18:58:10.332Z,86.32
2022-11-14T19:03:14.739Z,86.27
2022-11-14T19:08:18.611Z,86.63
2022-11-14T19:13:24.939Z,86.70
2022-11-14T19:18:27.832Z,87.23
2022-11-14T19:23:31.163Z,86.68
2022-11-14T19:28:34.289Z,86.28
2022-11-14T19:33:40.284Z,86.60
2022-11-14T19:38:43.400Z,86.66
2022-11-14T19:43:46.961Z,87.50
2022-11-14T19:48:49.921Z,87.47
2022-11-14T19:53:53.512Z,87.65
2022-11-14T19:58:56.799Z,87.97
2022-11-14T20:04:01.799Z,88.20
2022-11-14T20:09:08.056Z,88.12
2022-11-14T20:14:12.383Z,88.37
2022-11-14T20:19:16.275Z,88.40
2022-11-14T20:24:22.604Z,88.57
2022-11-14T20:29:25.459Z,88.50
2022-11-14T20:34:28.224Z,88.57
2022-11-14T20:39:31.121Z,88.54
2022-11-14T20:44:33.953Z,88.50
2022-11-14T20:49:36.795Z,88.51
2022-11-14T20:54:39.762Z,88.72
2022-11-14T20:59:42.673Z,88.61
2022-11-14T21:04:45.595Z,88.47
2022-11-14T21:09:49.019Z,88.41
2022-11-14T21:14:51.816Z,87.78
2022-11-14T21:19:54.813Z,88.18
2022-11-14T21:24:57.640Z,88.17
2022-11-14T21:30:00.518Z,88.19
2022-11-14T21:35:09.547Z,88.00
2022-11-14T21:40:13.239Z,87.83
2022-11-14T21:45:16.328Z,88.08
2022-11-14T21:50:19.205Z,87.84
2022-11-14T21:55:22.326Z,87.89
2022-11-14T22:00:25.136Z,87.90
2022-11-14T22:05:27.960Z,87.96
2022-11-14T22:10:30.957Z,88.33
2022-11-14T22:15:35.716Z,88.21
2022-11-14T22:20:38.604Z,88.09
2022-11-14T22:25:41.487Z,88.10
2022-11-14T22:30:44.355Z,87.97
2022-11-14T22:35:47.183Z,88.06
2022-11-14T22:40:50.049Z,87.89
2022-11-14T22:45:53.220Z,87.92
2022-11-14T22:51:20.390Z,87.96
2022-11-14T22:56:25.642Z,88.12
2022-11-14T23:01:33.866Z,88.55
2022-11-14T23:06:37.007Z,88.31
2022-11-14T23:11:39.896Z,88.33
2022-11-14T23:16:42.658Z,88.51
2022-11-14T23:21:45.487Z,88.61
2022-11-14T23:26:49.752Z,88.60
2022-11-14T23:31:52.575Z,88.68
2022-11-14T23:36:55.369Z,88.71
2022-11-14T23:41:58.160Z,88.73
2022-11-14T23:47:01.152Z,88.66
2022-11-14T23:52:04.157Z,88.22
2022-11-14T23:57:06.965Z,88.10
